createdAt,value
2017-07-07T00:00:21.607Z,59.89
2017-07-07T00:01:02.185Z,59.99
2017-07-07T00:01:42.770Z,59.69
2017-07-07T00:02:23.344Z,59.69
2017-07-07T00:03:03.918Z,59.99
2017-07-07T00:03:44.523Z,60.37
2017-07-07T00:04:25.148Z,60.46
2017-07-07T00:05:05.747Z,60.66
2017-07-07T00:05:46.321Z,60.27
2017-07-07T00:06:26.881Z,59.89
2017-07-07T00:07:07.464Z,59.89
2017-07-07T00:07:48.037Z,59.99
2017-07-07T00:08:28.644Z,60.27
2017-07-07T00:09:09.234Z,59.99
2017-07-07T00:09:49.829Z,59.79
2017-07-07T00:10:30.414Z,59.6
2017-07-07T00:11:10.999Z,59.69
2017-07-07T00:11:51.576Z,59.99
2017-07-07T00:12:32.140Z,59.79
2017-07-07T00:13:12.715Z,60.17
2017-07-07T00:13:53.281Z,59.89
2017-07-07T00:14:33.866Z,59.79
2017-07-07T00:15:15.565Z,59.89
2017-07-07T00:15:56.145Z,59.69
2017-07-07T00:16:36.715Z,60.75
2017-07-07T00:17:17.307Z,60.08
2017-07-07T00:17:57.871Z,59.89
2017-07-07T00:18:38.437Z,60.17
2017-07-07T00:19:19.019Z,60.46
2017-07-07T00:19:59.593Z,59.89
2017-07-07T00:20:40.189Z,59.99
2017-07-07T00:21:20.784Z,59.89
2017-07-07T00:22:01.363Z,60.56
2017-07-07T00:22:41.925Z,59.99
2017-07-07T00:23:22.496Z,59.79
2017-07-07T00:24:03.068Z,59.99
2017-07-07T00:24:43.653Z,59.89
2017-07-07T00:25:24.223Z,59.99
2017-07-07T00:26:04.783Z,60.85
2017-07-07T00:26:45.357Z,60.66
2017-07-07T00:27:25.923Z,60.56
2017-07-07T00:28:06.512Z,60.56
2017-07-07T00:28:47.082Z,60.37
2017-07-07T00:29:27.633Z,60.85
2017-07-07T00:30:08.209Z,60.46
2017-07-07T00:30:48.775Z,60.56
2017-07-07T00:31:29.383Z,60.17
2017-07-07T00:32:09.946Z,60.66
2017-07-07T00:32:50.521Z,60.66
2017-07-07T00:33:31.089Z,60.46
2017-07-07T00:34:11.658Z,60.53
2017-07-07T00:34:52.251Z,60.56
2017-07-07T00:35:32.825Z,60.56
2017-07-07T00:36:13.409Z,61.04
2017-07-07T00:36:53.997Z,60.75
2017-07-07T00:37:34.572Z,60.27
2017-07-07T00:38:15.154Z,60.66
2017-07-07T00:38:55.736Z,60.66
2017-07-07T00:39:36.312Z,60.85
2017-07-07T00:40:16.902Z,60.94
2017-07-07T00:40:57.474Z,60.66
2017-07-07T00:41:38.042Z,60.85
2017-07-07T00:42:18.635Z,60.56
2017-07-07T00:42:59.223Z,60.94
2017-07-07T00:43:39.818Z,60.63
2017-07-07T00:44:20.395Z,60.85
2017-07-07T00:45:00.969Z,60.66
2017-07-07T00:45:41.546Z,60.63
2017-07-07T00:46:22.120Z,60.46
2017-07-07T00:47:02.700Z,60.85
2017-07-07T00:47:43.336Z,60.56
2017-07-07T00:48:23.957Z,60.56
2017-07-07T00:49:04.525Z,60.72
2017-07-07T00:49:45.109Z,60.63
2017-07-07T00:50:25.685Z,60.75
2017-07-07T00:51:06.267Z,60.56
2017-07-07T00:51:46.832Z,60.85
2017-07-07T00:52:27.414Z,60.37
2017-07-07T00:53:07.984Z,60.63
2017-07-07T00:53:48.553Z,60.53
2017-07-07T00:54:29.117Z,60.43
2017-07-07T00:55:09.685Z,60.82
2017-07-07T00:55:50.257Z,60.82
2017-07-07T00:56:30.823Z,60.82
2017-07-07T00:57:11.421Z,60.91
2017-07-07T00:57:52.032Z,60.82
2017-07-07T00:58:32.579Z,60.72
2017-07-07T00:59:13.157Z,60.34
2017-07-07T00:59:53.784Z,61.11
2017-07-07T01:00:34.354Z,61.3
2017-07-07T01:01:14.945Z,60.72
2017-07-07T01:01:55.521Z,60.43
2017-07-07T01:02:36.088Z,61.11
2017-07-07T01:03:16.655Z,60.72
2017-07-07T01:03:57.221Z,60.72
2017-07-07T01:04:37.824Z,60.91
2017-07-07T01:05:18.401Z,60.82
2017-07-07T01:05:59.000Z,60.82
2017-07-07T01:06:39.581Z,60.75
2017-07-07T01:07:20.228Z,60.34
2017-07-07T01:08:00.788Z,60.43
2017-07-07T01:08:41.365Z,60.82
2017-07-07T01:09:21.954Z,60.85
2017-07-07T01:10:02.531Z,60.72
2017-07-07T01:10:43.099Z,60.53
2017-07-07T01:11:23.687Z,61.11
2017-07-07T01:12:04.263Z,60.72
2017-07-07T01:12:44.850Z,60.66
2017-07-07T01:13:25.428Z,60.46
2017-07-07T01:14:05.997Z,60.82
2017-07-07T01:14:46.566Z,60.34
2017-07-07T01:15:27.144Z,60.53
2017-07-07T01:16:07.721Z,60.63
2017-07-07T01:16:48.278Z,60.82
2017-07-07T01:17:28.869Z,60.91
2017-07-07T01:18:09.423Z,60.43
2017-07-07T01:18:50.002Z,61.01
2017-07-07T01:19:30.563Z,60.82
2017-07-07T01:20:11.133Z,60.72
2017-07-07T01:20:51.715Z,61.3
2017-07-07T01:21:32.283Z,61.11
2017-07-07T01:22:12.866Z,61.2
2017-07-07T01:22:53.435Z,60.63
2017-07-07T01:23:33.998Z,60.53
2017-07-07T01:24:14.574Z,60.63
2017-07-07T01:24:55.135Z,61.11
2017-07-07T01:25:35.719Z,61.01
2017-07-07T01:26:16.301Z,61.01
2017-07-07T01:26:56.883Z,60.91
2017-07-07T01:27:37.464Z,61.2
2017-07-07T01:28:18.028Z,61.3
2017-07-07T01:28:58.612Z,61.4
2017-07-07T01:29:39.175Z,61.4
2017-07-07T01:30:19.741Z,61.11
2017-07-07T01:31:00.313Z,61.01
2017-07-07T01:31:40.897Z,61.01
2017-07-07T01:32:21.466Z,61.3
2017-07-07T01:33:02.039Z,61.2
2017-07-07T01:33:42.619Z,61.3
2017-07-07T01:34:23.206Z,61.3
2017-07-07T01:35:03.829Z,61.58
2017-07-07T01:35:44.409Z,61.4
2017-07-07T01:36:24.995Z,61.4
2017-07-07T01:37:05.561Z,61.01
2017-07-07T01:37:46.148Z,60.91
2017-07-07T01:38:26.707Z,60.82
2017-07-07T01:39:07.274Z,61.58
2017-07-07T01:39:47.859Z,61.4
2017-07-07T01:40:28.433Z,61.49
2017-07-07T01:41:08.995Z,61.4
2017-07-07T01:41:49.563Z,61.49
2017-07-07T01:42:30.133Z,61.4
2017-07-07T01:43:10.704Z,61.97
2017-07-07T01:43:51.269Z,61.2
2017-07-07T01:44:31.859Z,61.68
2017-07-07T01:45:12.441Z,61.11
2017-07-07T01:45:53.021Z,61.49
2017-07-07T01:46:33.576Z,61.4
2017-07-07T01:47:14.149Z,61.3
2017-07-07T01:47:54.725Z,61.3
2017-07-07T01:48:35.417Z,60.82
2017-07-07T01:49:16.046Z,60.82
2017-07-07T01:49:56.622Z,61.49
2017-07-07T01:50:37.189Z,61.2
2017-07-07T01:51:17.761Z,61.49
2017-07-07T01:51:58.352Z,61.49
2017-07-07T01:52:38.935Z,61.4
2017-07-07T01:53:19.516Z,61.49
2017-07-07T01:54:00.084Z,61.2
2017-07-07T01:54:40.663Z,61.2
2017-07-07T01:55:21.233Z,61.2
2017-07-07T01:56:01.795Z,61.4
2017-07-07T01:56:42.378Z,61.3
2017-07-07T01:57:22.959Z,62.07
2017-07-07T01:58:03.525Z,61.4
2017-07-07T01:58:44.094Z,61.49
2017-07-07T01:59:24.675Z,61.87
2017-07-07T02:00:05.242Z,61.2
2017-07-07T02:00:45.806Z,61.2
2017-07-07T02:01:26.384Z,60.91
2017-07-07T02:02:06.956Z,60.91
2017-07-07T02:02:47.541Z,60.72
2017-07-07T02:03:28.120Z,61.49
2017-07-07T02:04:08.692Z,61.3
2017-07-07T02:04:49.251Z,61.4
2017-07-07T02:05:29.827Z,61.58
2017-07-07T02:06:10.424Z,61.3
2017-07-07T02:06:51.022Z,61.3
2017-07-07T02:07:31.577Z,61.3
2017-07-07T02:08:12.142Z,61.3
2017-07-07T02:08:52.725Z,61.11
2017-07-07T02:09:33.291Z,61.11
2017-07-07T02:10:13.868Z,60.43
2017-07-07T02:10:54.442Z,60.53
2017-07-07T02:11:35.010Z,60.63
2017-07-07T02:12:15.575Z,60.91
2017-07-07T02:12:56.141Z,61.11
2017-07-07T02:13:36.719Z,61.3
2017-07-07T02:14:17.337Z,61.3
2017-07-07T02:14:57.931Z,60.91
2017-07-07T02:15:38.505Z,61.2
2017-07-07T02:16:19.067Z,61.2
2017-07-07T02:17:00.460Z,60.82
2017-07-07T02:17:41.025Z,60.82
2017-07-07T02:18:21.630Z,61.4
2017-07-07T02:19:02.238Z,61.4
2017-07-07T02:19:42.838Z,61.4
2017-07-07T02:20:23.401Z,61.49
2017-07-07T02:21:03.982Z,60.91
2017-07-07T02:21:44.576Z,61.3
2017-07-07T02:22:25.162Z,61.2
2017-07-07T02:23:05.732Z,61.01
2017-07-07T02:23:46.304Z,60.91
2017-07-07T02:24:26.883Z,61.68
2017-07-07T02:25:07.459Z,61.4
2017-07-07T02:25:48.028Z,62.07
2017-07-07T02:26:28.599Z,61.3
2017-07-07T02:27:09.205Z,61.3
2017-07-07T02:27:49.792Z,61.3
2017-07-07T02:28:30.430Z,61.4
2017-07-07T02:29:11.009Z,61.4
2017-07-07T02:29:51.573Z,61.84
2017-07-07T02:30:32.156Z,61.78
2017-07-07T02:31:12.711Z,61.87
2017-07-07T02:31:53.285Z,61.84
2017-07-07T02:32:33.871Z,61.94
2017-07-07T02:33:14.434Z,61.49
2017-07-07T02:33:55.018Z,61.36
2017-07-07T02:34:35.590Z,61.58
2017-07-07T02:35:16.164Z,61.78
2017-07-07T02:35:56.750Z,61.78
2017-07-07T02:36:37.317Z,61.97
2017-07-07T02:37:17.895Z,61.3
2017-07-07T02:37:58.456Z,62.07
2017-07-07T02:38:39.030Z,61.87
2017-07-07T02:39:19.597Z,61.55
2017-07-07T02:40:00.166Z,61.94
2017-07-07T02:40:40.736Z,62.16
2017-07-07T02:41:21.303Z,61.94
2017-07-07T02:42:01.877Z,62.04
2017-07-07T02:42:42.452Z,61.87
2017-07-07T02:43:23.027Z,62.23
2017-07-07T02:44:03.586Z,62.61
2017-07-07T02:44:44.195Z,62.64
2017-07-07T02:45:24.756Z,62.16
2017-07-07T02:46:05.318Z,62.55
2017-07-07T02:46:45.891Z,62.26
2017-07-07T02:47:26.488Z,62.07
2017-07-07T02:48:07.037Z,62.16
2017-07-07T02:48:47.616Z,61.46
2017-07-07T02:49:28.187Z,61.87
2017-07-07T02:50:08.748Z,61.87
2017-07-07T02:50:49.319Z,61.36
2017-07-07T02:51:29.894Z,61.97
2017-07-07T02:52:10.462Z,61.84
2017-07-07T02:52:51.020Z,62.23
2017-07-07T02:53:31.586Z,61.84
2017-07-07T02:54:12.189Z,61.78
2017-07-07T02:54:52.755Z,62.07
2017-07-07T02:55:33.330Z,61.87
2017-07-07T02:56:13.913Z,61.94
2017-07-07T02:56:54.508Z,62.23
2017-07-07T02:57:35.062Z,62.45
2017-07-07T02:58:15.636Z,62.32
2017-07-07T02:58:56.211Z,61.68
2017-07-07T02:59:36.770Z,61.87
2017-07-07T03:00:17.409Z,62.04
2017-07-07T03:02:35.549Z,62.13
2017-07-07T03:03:16.152Z,62.42
2017-07-07T03:03:56.747Z,62.52
2017-07-07T03:04:37.325Z,62.61
2017-07-07T03:05:17.921Z,62.42
2017-07-07T03:05:58.500Z,62.52
2017-07-07T03:06:39.111Z,62.55
2017-07-07T03:07:19.706Z,62.35
2017-07-07T03:08:00.271Z,62.64
2017-07-07T03:08:40.852Z,62.74
2017-07-07T03:09:21.421Z,62.52
2017-07-07T03:10:02.003Z,62.32
2017-07-07T03:10:42.578Z,62.52
2017-07-07T03:11:23.141Z,62.71
2017-07-07T03:12:03.712Z,62.74
2017-07-07T03:12:44.274Z,62.61
2017-07-07T03:13:24.857Z,62.74
2017-07-07T03:14:05.431Z,62.13
2017-07-07T03:14:45.998Z,62.32
2017-07-07T03:15:26.577Z,62.52
2017-07-07T03:16:07.148Z,62.61
2017-07-07T03:16:47.731Z,62.45
2017-07-07T03:17:28.288Z,62.74
2017-07-07T03:18:08.886Z,62.81
2017-07-07T03:18:49.462Z,62.61
2017-07-07T03:19:30.019Z,62.9
2017-07-07T03:20:10.590Z,62.35
2017-07-07T03:20:51.172Z,62.23
2017-07-07T03:21:31.740Z,62.52
2017-07-07T03:22:12.311Z,62.9
2017-07-07T03:22:52.897Z,62.61
2017-07-07T03:23:33.491Z,62.74
2017-07-07T03:24:14.058Z,62.81
2017-07-07T03:24:54.634Z,63.32
2017-07-07T03:25:35.209Z,63.09
2017-07-07T03:26:15.778Z,62.64
2017-07-07T03:26:56.401Z,62.45
2017-07-07T03:27:36.961Z,62.61
2017-07-07T03:28:17.552Z,62.55
2017-07-07T03:28:58.133Z,62.42
2017-07-07T03:29:38.730Z,62.71
2017-07-07T03:30:19.305Z,62.61
2017-07-07T03:30:59.871Z,62.42
2017-07-07T03:31:40.447Z,62.9
2017-07-07T03:32:21.027Z,63.02
2017-07-07T03:33:01.618Z,62.81
2017-07-07T03:33:42.190Z,63.28
2017-07-07T03:34:22.777Z,62.84
2017-07-07T03:35:03.355Z,62.52
2017-07-07T03:35:43.946Z,62.61
2017-07-07T03:36:24.522Z,62.64
2017-07-07T03:37:05.120Z,62.84
2017-07-07T03:37:45.688Z,62.61
2017-07-07T03:38:26.274Z,62.74
2017-07-07T03:39:06.843Z,62.93
2017-07-07T03:39:47.441Z,62.9
2017-07-07T03:40:28.010Z,62.84
2017-07-07T03:41:08.568Z,62.61
2017-07-07T03:41:49.169Z,62.71
2017-07-07T03:42:29.771Z,62.84
2017-07-07T03:43:10.344Z,62.81
2017-07-07T03:43:50.934Z,62.84
2017-07-07T03:44:31.491Z,63.48
2017-07-07T03:45:12.072Z,63.12
2017-07-07T03:45:52.644Z,63.02
2017-07-07T03:46:33.232Z,62.93
2017-07-07T03:47:13.811Z,63.6
2017-07-07T03:47:54.397Z,63.6
2017-07-07T03:48:34.984Z,62.84
2017-07-07T03:49:15.569Z,62.84
2017-07-07T03:49:56.172Z,62.64
2017-07-07T03:50:36.742Z,62.74
2017-07-07T03:51:17.337Z,62.93
2017-07-07T03:51:57.907Z,63.02
2017-07-07T03:52:38.487Z,62.84
2017-07-07T03:53:19.048Z,62.99
2017-07-07T03:53:59.621Z,62.99
2017-07-07T03:54:40.214Z,63.19
2017-07-07T03:55:20.787Z,62.71
2017-07-07T03:56:01.374Z,63.12
2017-07-07T03:56:41.965Z,62.61
2017-07-07T03:57:22.546Z,62.74
2017-07-07T03:58:03.158Z,63.12
2017-07-07T03:58:43.758Z,62.93
2017-07-07T03:59:24.330Z,62.93
2017-07-07T04:00:04.899Z,62.93
2017-07-07T04:00:45.506Z,62.74
2017-07-07T04:01:26.079Z,62.93
2017-07-07T04:02:06.644Z,62.74
2017-07-07T04:02:47.215Z,62.84
2017-07-07T04:03:27.811Z,62.81
2017-07-07T04:04:08.370Z,62.84
2017-07-07T04:04:48.944Z,62.81
2017-07-07T04:05:29.520Z,63.41
2017-07-07T04:06:10.112Z,63.38
2017-07-07T04:06:50.678Z,62.99
2017-07-07T04:07:31.241Z,63.51
2017-07-07T04:08:11.808Z,63.57
2017-07-07T04:08:52.380Z,63.22
2017-07-07T04:09:32.946Z,63.6
2017-07-07T04:10:13.518Z,63.19
2017-07-07T04:10:54.099Z,63.7
2017-07-07T04:11:34.710Z,63.6
2017-07-07T04:12:15.301Z,63.32
2017-07-07T04:12:55.866Z,63.41
2017-07-07T04:13:36.433Z,62.99
2017-07-07T04:14:17.015Z,63.48
2017-07-07T04:14:57.584Z,63.57
2017-07-07T04:15:38.154Z,63.51
2017-07-07T04:16:18.719Z,63.57
2017-07-07T04:16:59.305Z,63.67
2017-07-07T04:17:39.874Z,63.57
2017-07-07T04:18:20.446Z,63.7
2017-07-07T04:19:01.039Z,63.19
2017-07-07T04:19:41.620Z,63.38
2017-07-07T04:20:22.213Z,63.48
2017-07-07T04:21:02.807Z,63.89
2017-07-07T04:21:43.389Z,64.25
2017-07-07T04:22:23.992Z,64.15
2017-07-07T04:23:04.559Z,63.96
2017-07-07T04:23:45.146Z,63.48
2017-07-07T04:24:25.845Z,63.96
2017-07-07T04:25:06.424Z,64.25
2017-07-07T04:25:46.994Z,64.43
2017-07-07T04:26:27.584Z,64.66
2017-07-07T04:27:08.180Z,64.37
2017-07-07T04:27:48.750Z,64.09
2017-07-07T04:28:29.339Z,63.89
2017-07-07T04:29:09.960Z,64.09
2017-07-07T04:29:50.552Z,63.79
2017-07-07T04:30:31.125Z,63.6
2017-07-07T04:31:11.714Z,63.79
2017-07-07T04:31:52.325Z,64.56
2017-07-07T04:32:32.916Z,64.09
2017-07-07T04:33:13.509Z,63.89
2017-07-07T04:33:54.149Z,63.89
2017-07-07T04:34:34.777Z,64.37
2017-07-07T04:35:15.367Z,64.37
2017-07-07T04:35:55.973Z,64.09
2017-07-07T04:36:36.541Z,63.89
2017-07-07T04:37:17.123Z,64.09
2017-07-07T04:37:57.703Z,64.47
2017-07-07T04:38:38.247Z,64.76
2017-07-07T04:39:18.828Z,64.47
2017-07-07T04:39:59.399Z,64.28
2017-07-07T04:40:39.953Z,64.18
2017-07-07T04:41:20.523Z,64.37
2017-07-07T04:42:01.091Z,64.85
2017-07-07T04:42:41.693Z,64.66
2017-07-07T04:43:22.269Z,64.56
2017-07-07T04:44:02.847Z,64.95
2017-07-07T04:44:43.421Z,64.37
2017-07-07T04:45:23.992Z,64.56
2017-07-07T04:46:04.562Z,64.56
2017-07-07T04:46:45.138Z,64.47
2017-07-07T04:47:25.707Z,64.56
2017-07-07T04:48:06.288Z,64.47
2017-07-07T04:48:48.119Z,64.37
2017-07-07T04:49:28.685Z,64.56
2017-07-07T04:50:09.278Z,64.47
2017-07-07T04:50:49.853Z,64.56
2017-07-07T04:51:30.421Z,64.47
2017-07-07T04:52:10.981Z,64.47
2017-07-07T04:52:51.679Z,64.37
2017-07-07T04:53:32.245Z,64.47
2017-07-07T04:54:12.835Z,64.66
2017-07-07T04:54:53.397Z,64.66
2017-07-07T04:55:33.975Z,64.85
2017-07-07T04:56:14.540Z,64.95
2017-07-07T04:56:55.110Z,65.23
2017-07-07T04:57:35.688Z,65.23
2017-07-07T04:58:16.351Z,65.33
2017-07-07T04:58:56.947Z,64.95
2017-07-07T04:59:37.524Z,65.05
2017-07-07T05:00:18.091Z,65.05
2017-07-07T05:00:58.656Z,65.14
2017-07-07T05:01:39.246Z,65.72
2017-07-07T05:02:19.839Z,65.23
2017-07-07T05:03:00.412Z,65.23
2017-07-07T05:03:41.027Z,64.56
2017-07-07T05:04:21.626Z,64.76
2017-07-07T05:05:02.205Z,64.95
2017-07-07T05:05:42.779Z,65.14
2017-07-07T05:06:23.446Z,65.81
2017-07-07T05:07:04.010Z,65.33
2017-07-07T05:07:44.615Z,65.72
2017-07-07T05:08:25.194Z,65.62
2017-07-07T05:09:05.761Z,65.81
2017-07-07T05:09:46.365Z,65.81
2017-07-07T05:10:26.953Z,66.3
2017-07-07T05:11:07.526Z,66.2
2017-07-07T05:11:48.103Z,66.1
2017-07-07T05:12:28.666Z,66.68
2017-07-07T05:13:09.232Z,66.3
2017-07-07T05:13:49.813Z,66.3
2017-07-07T05:14:30.402Z,66.2
2017-07-07T05:15:10.983Z,66.3
2017-07-07T05:15:51.575Z,66
2017-07-07T05:16:32.172Z,65.53
2017-07-07T05:17:12.731Z,66
2017-07-07T05:17:53.296Z,66.49
2017-07-07T05:18:33.855Z,66.77
2017-07-07T05:19:14.422Z,66.3
2017-07-07T05:19:54.986Z,66.68
2017-07-07T05:20:35.558Z,66.3
2017-07-07T05:21:16.128Z,66.58
2017-07-07T05:21:56.692Z,66.58
2017-07-07T05:22:37.278Z,66.49
2017-07-07T05:23:17.920Z,66.68
2017-07-07T05:23:58.449Z,66
2017-07-07T05:24:39.020Z,66.1
2017-07-07T05:25:19.601Z,66.68
2017-07-07T05:26:00.168Z,66.68
2017-07-07T05:26:40.749Z,66.97
2017-07-07T05:27:21.322Z,67.07
2017-07-07T05:28:01.885Z,67.54
2017-07-07T05:28:42.447Z,67.83
2017-07-07T05:29:23.043Z,68.31
2017-07-07T05:30:03.603Z,68.31
2017-07-07T05:30:44.179Z,68.51
2017-07-07T05:31:24.777Z,68.51
2017-07-07T05:32:05.354Z,69.53
2017-07-07T05:32:45.938Z,69.46
2017-07-07T05:33:26.567Z,70.04
2017-07-07T05:34:07.150Z,69.95
2017-07-07T05:34:47.722Z,70.23
2017-07-07T05:35:28.288Z,70.04
2017-07-07T05:36:08.857Z,70.43
2017-07-07T05:36:49.411Z,70.9
2017-07-07T05:37:30.027Z,70.81
2017-07-07T05:38:10.606Z,71.1
2017-07-07T05:38:51.206Z,70.62
2017-07-07T05:39:31.807Z,71.1
2017-07-07T05:40:12.368Z,71.29
2017-07-07T05:40:52.937Z,71.19
2017-07-07T05:41:33.507Z,71.29
2017-07-07T05:42:14.085Z,71.48
2017-07-07T05:42:54.654Z,71.48
2017-07-07T05:43:35.215Z,72.25
2017-07-07T05:44:15.791Z,71.96
2017-07-07T05:44:56.376Z,71.96
2017-07-07T05:45:36.954Z,71.87
2017-07-07T05:46:17.527Z,71.96
2017-07-07T05:46:58.092Z,72.06
2017-07-07T05:47:38.663Z,71.87
2017-07-07T05:48:19.233Z,72.25
2017-07-07T05:48:59.816Z,72.54
2017-07-07T05:49:40.391Z,72.54
2017-07-07T05:50:20.958Z,72.73
2017-07-07T05:51:01.559Z,72.83
2017-07-07T05:51:42.146Z,72.92
2017-07-07T05:52:22.709Z,72.64
2017-07-07T05:53:03.282Z,72.54
2017-07-07T05:53:43.844Z,72.92
2017-07-07T05:54:24.421Z,72.83
2017-07-07T05:55:05.047Z,73.21
2017-07-07T05:55:45.599Z,73.02
2017-07-07T05:56:26.155Z,73.21
2017-07-07T05:57:06.713Z,72.83
2017-07-07T05:57:47.284Z,73.02
2017-07-07T05:58:27.863Z,73.31
2017-07-07T05:59:08.434Z,73.21
2017-07-07T05:59:49.016Z,73.21
2017-07-07T06:00:30.164Z,73.02
2017-07-07T06:01:10.285Z,73.02
2017-07-07T06:01:50.844Z,73.11
2017-07-07T06:02:31.422Z,72.92
2017-07-07T06:03:12.001Z,72.92
2017-07-07T06:03:52.591Z,73.5
2017-07-07T06:04:33.913Z,73.02
2017-07-07T06:05:14.568Z,73.21
2017-07-07T06:05:55.129Z,73.69
2017-07-07T06:06:35.700Z,73.21
2017-07-07T06:07:16.842Z,73.02
2017-07-07T06:07:57.554Z,73.02
2017-07-07T06:08:38.132Z,73.5
2017-07-07T06:09:18.762Z,73.5
2017-07-07T06:09:59.617Z,73.6
2017-07-07T06:10:40.193Z,74.08
2017-07-07T06:11:20.787Z,74.17
2017-07-07T06:12:01.377Z,73.88
2017-07-07T06:12:41.958Z,73.98
2017-07-07T06:13:22.524Z,73.98
2017-07-07T06:14:03.086Z,74.17
2017-07-07T06:14:43.655Z,73.41
2017-07-07T06:15:24.217Z,73.5
2017-07-07T06:16:04.800Z,72.83
2017-07-07T06:16:45.382Z,72.83
2017-07-07T06:17:25.946Z,73.41
2017-07-07T06:18:06.569Z,73.5
2017-07-07T06:18:47.131Z,73.5
2017-07-07T06:19:27.691Z,73.21
2017-07-07T06:20:08.265Z,73.41
2017-07-07T06:20:48.840Z,73.5
2017-07-07T06:21:29.402Z,73.02
2017-07-07T06:22:09.988Z,73.41
2017-07-07T06:22:50.569Z,74.08
2017-07-07T06:23:31.142Z,74.46
2017-07-07T06:24:11.725Z,73.98
2017-07-07T06:24:52.316Z,73.79
2017-07-07T06:25:32.904Z,73.98
2017-07-07T06:26:13.486Z,73.69
2017-07-07T06:26:54.049Z,74.17
2017-07-07T06:27:34.631Z,74.55
2017-07-07T06:28:15.201Z,74.08
2017-07-07T06:28:55.767Z,73.88
2017-07-07T06:29:36.345Z,73.83
2017-07-07T06:30:16.944Z,74.55
2017-07-07T06:30:57.535Z,74.65
2017-07-07T06:31:38.114Z,74.08
2017-07-07T06:32:18.692Z,74.21
2017-07-07T06:32:59.266Z,74.65
2017-07-07T06:33:39.833Z,74.6
2017-07-07T06:34:20.396Z,74.55
2017-07-07T06:35:00.973Z,74.46
2017-07-07T06:35:41.569Z,74.46
2017-07-07T06:36:22.135Z,74.65
2017-07-07T06:37:02.697Z,74.55
2017-07-07T06:37:43.280Z,75.04
2017-07-07T06:38:23.844Z,74.6
2017-07-07T06:39:04.454Z,74.46
2017-07-07T06:39:45.052Z,75.17
2017-07-07T06:40:25.617Z,75.07
2017-07-07T06:41:06.196Z,74.37
2017-07-07T06:41:46.771Z,74.98
2017-07-07T06:42:27.349Z,74.88
2017-07-07T06:43:07.943Z,75.17
2017-07-07T06:43:48.575Z,74.88
2017-07-07T06:44:29.100Z,75.13
2017-07-07T06:45:09.698Z,74.85
2017-07-07T06:45:50.267Z,75.62
2017-07-07T06:46:30.922Z,75.9
2017-07-07T06:47:11.542Z,75.81
2017-07-07T06:47:52.115Z,75.62
2017-07-07T06:48:32.682Z,76.09
2017-07-07T06:49:13.266Z,76.29
2017-07-07T06:49:54.023Z,76.57
2017-07-07T06:50:34.614Z,76
2017-07-07T06:51:15.576Z,76.67
2017-07-07T06:51:56.154Z,76.67
2017-07-07T06:52:36.790Z,76.57
2017-07-07T06:53:17.373Z,76.19
2017-07-07T06:53:57.986Z,76.19
2017-07-07T06:54:38.726Z,76
2017-07-07T06:55:19.293Z,75.62
2017-07-07T06:55:59.915Z,76.19
2017-07-07T06:56:40.528Z,75.81
2017-07-07T06:57:21.232Z,76.67
2017-07-07T06:58:01.800Z,76.77
2017-07-07T06:58:42.411Z,76.39
2017-07-07T06:59:22.989Z,75.9
2017-07-07T07:00:03.556Z,76.39
2017-07-07T07:00:44.127Z,76.57
2017-07-07T07:01:24.684Z,75.94
2017-07-07T07:02:05.282Z,75.42
2017-07-07T07:02:45.869Z,75.56
2017-07-07T07:03:26.596Z,75.94
2017-07-07T07:04:07.146Z,75.81
2017-07-07T07:04:47.778Z,75.94
2017-07-07T07:05:28.365Z,76.42
2017-07-07T07:06:08.965Z,76.42
2017-07-07T07:06:49.523Z,76.39
2017-07-07T07:07:30.092Z,76.57
2017-07-07T07:08:10.913Z,76.67
2017-07-07T07:08:51.557Z,76.86
2017-07-07T07:09:32.167Z,76.86
2017-07-07T07:10:12.740Z,77.06
2017-07-07T07:10:53.322Z,77.63
2017-07-07T07:11:33.940Z,77.44
2017-07-07T07:12:14.500Z,77.53
2017-07-07T07:12:55.091Z,77.44
2017-07-07T07:13:35.672Z,77.73
2017-07-07T07:14:16.286Z,77.73
2017-07-07T07:14:56.885Z,77.53
2017-07-07T07:15:37.465Z,78.21
2017-07-07T07:16:18.044Z,78.11
2017-07-07T07:16:58.925Z,77.92
2017-07-07T07:17:39.515Z,78.11
2017-07-07T07:18:20.103Z,78.21
2017-07-07T07:19:00.664Z,78.98
2017-07-07T07:19:41.253Z,78.4
2017-07-07T07:20:21.870Z,78.5
2017-07-07T07:21:02.553Z,78.59
2017-07-07T07:21:43.128Z,78.59
2017-07-07T07:22:23.691Z,78.4
2017-07-07T07:23:04.268Z,78.88
2017-07-07T07:23:44.853Z,78.59
2017-07-07T07:24:25.432Z,78.78
2017-07-07T07:25:06.035Z,78.78
2017-07-07T07:25:46.656Z,78.88
2017-07-07T07:26:27.308Z,78.5
2017-07-07T07:27:07.847Z,78.5
2017-07-07T07:27:48.409Z,78.69
2017-07-07T07:28:28.972Z,78.5
2017-07-07T07:29:09.543Z,78.5
2017-07-07T07:29:50.128Z,78.59
2017-07-07T07:30:30.750Z,78.78
2017-07-07T07:31:11.312Z,78.59
2017-07-07T07:31:51.904Z,78.02
2017-07-07T07:32:32.485Z,77.92
2017-07-07T07:33:13.048Z,78.69
2017-07-07T07:33:53.636Z,77.92
2017-07-07T07:34:34.202Z,77.83
2017-07-07T07:35:14.791Z,78.11
2017-07-07T07:35:55.368Z,77.92
2017-07-07T07:36:35.952Z,77.92
2017-07-07T07:37:16.556Z,78.02
2017-07-07T07:37:57.124Z,77.92
2017-07-07T07:38:37.717Z,77.83
2017-07-07T07:39:18.298Z,77.44
2017-07-07T07:39:58.887Z,77.92
2017-07-07T07:40:39.501Z,78.21
2017-07-07T07:41:20.087Z,78.02
2017-07-07T07:42:00.667Z,77.83
2017-07-07T07:42:41.255Z,77.73
2017-07-07T07:43:21.879Z,77.83
2017-07-07T07:44:02.460Z,78.02
2017-07-07T07:44:43.043Z,77.92
2017-07-07T07:45:23.646Z,78.69
2017-07-07T07:46:04.218Z,77.73
2017-07-07T07:46:44.772Z,77.92
2017-07-07T07:47:25.347Z,78.02
2017-07-07T07:48:05.937Z,78.21
2017-07-07T07:48:46.524Z,78.02
2017-07-07T07:49:27.099Z,78.02
2017-07-07T07:50:07.689Z,78.11
2017-07-07T07:50:48.276Z,77.92
2017-07-07T07:51:28.859Z,78.11
2017-07-07T07:52:09.436Z,78.3
2017-07-07T07:52:50.034Z,78.59
2017-07-07T07:53:30.675Z,78.88
2017-07-07T07:54:11.273Z,78.3
2017-07-07T07:54:51.846Z,78.78
2017-07-07T07:55:32.424Z,78.3
2017-07-07T07:56:13.002Z,78.78
2017-07-07T07:56:53.585Z,78.4
2017-07-07T07:57:34.157Z,78.69
2017-07-07T07:58:14.728Z,78.59
2017-07-07T07:58:55.308Z,78.4
2017-07-07T07:59:35.895Z,79.46
2017-07-07T08:00:16.456Z,78.88
2017-07-07T08:00:57.034Z,78.88
2017-07-07T08:01:37.607Z,79.36
2017-07-07T08:02:18.207Z,79.27
2017-07-07T08:02:58.785Z,79.55
2017-07-07T08:03:39.348Z,78.98
2017-07-07T08:04:19.929Z,79.55
2017-07-07T08:05:00.508Z,79.27
2017-07-07T08:05:41.090Z,78.88
2017-07-07T08:06:21.674Z,79.27
2017-07-07T08:07:02.285Z,78.59
2017-07-07T08:07:42.854Z,78.78
2017-07-07T08:08:23.450Z,78.4
2017-07-07T08:09:04.031Z,78.69
2017-07-07T08:09:44.594Z,79.02
2017-07-07T08:10:25.198Z,79.07
2017-07-07T08:11:05.777Z,78.88
2017-07-07T08:11:46.397Z,78.78
2017-07-07T08:12:26.965Z,78.69
2017-07-07T08:13:07.532Z,78.73
2017-07-07T08:13:48.114Z,78.53
2017-07-07T08:14:28.672Z,78.92
2017-07-07T08:15:09.243Z,78.53
2017-07-07T08:15:49.817Z,79.02
2017-07-07T08:16:30.398Z,79.07
2017-07-07T08:17:10.972Z,79.02
2017-07-07T08:17:51.533Z,78.92
2017-07-07T08:18:32.096Z,78.98
2017-07-07T08:19:12.666Z,78.98
2017-07-07T08:19:53.247Z,79.6
2017-07-07T08:20:33.820Z,78.83
2017-07-07T08:21:14.384Z,78.73
2017-07-07T08:21:54.970Z,78.25
2017-07-07T08:22:35.541Z,77.96
2017-07-07T08:23:16.139Z,78.25
2017-07-07T08:23:56.700Z,78.73
2017-07-07T08:24:37.273Z,78.73
2017-07-07T08:25:17.845Z,78.83
2017-07-07T08:25:58.419Z,78.53
2017-07-07T08:26:39.009Z,77.96
2017-07-07T08:27:19.581Z,78.73
2017-07-07T08:28:00.147Z,78.34
2017-07-07T08:28:40.730Z,78.06
2017-07-07T08:29:21.290Z,77.86
2017-07-07T08:30:01.878Z,78.15
2017-07-07T08:30:42.516Z,78.25
2017-07-07T08:31:23.055Z,78.34
2017-07-07T08:32:03.640Z,78.15
2017-07-07T08:32:44.211Z,78.34
2017-07-07T08:33:24.800Z,77.96
2017-07-07T08:34:05.390Z,78.15
2017-07-07T08:34:45.959Z,77.67
2017-07-07T08:35:26.541Z,78.06
2017-07-07T08:36:07.116Z,77.96
2017-07-07T08:36:47.684Z,78.06
2017-07-07T08:37:28.246Z,78.15
2017-07-07T08:38:08.824Z,77.96
2017-07-07T08:38:49.388Z,78.25
2017-07-07T08:39:29.968Z,78.25
2017-07-07T08:40:10.542Z,78.06
2017-07-07T08:40:51.143Z,78.06
2017-07-07T08:41:31.727Z,78.06
2017-07-07T08:42:12.308Z,78.15
2017-07-07T08:42:52.895Z,77.96
2017-07-07T08:43:33.476Z,77.67
2017-07-07T08:44:14.040Z,78.15
2017-07-07T08:44:54.623Z,77.96
2017-07-07T08:45:35.193Z,78.25
2017-07-07T08:46:15.765Z,77.86
2017-07-07T08:46:56.350Z,78.06